createdAt,value
2022-11-13T00:01:52.107Z,26.73
2022-11-13T00:04:09.064Z,30.17
2022-11-13T00:06:26.253Z,28.55
2022-11-13T00:08:43.231Z,28.80
2022-11-13T00:11:01.168Z,30.33
2022-11-13T00:13:18.426Z,29.70
2022-11-13T00:15:35.371Z,31.10
2022-11-13T00:17:52.638Z,30.67
2022-11-13T00:20:09.724Z,31.58
2022-11-13T00:22:26.724Z,32.35
2022-11-13T00:24:43.799Z,31.25
2022-11-13T00:27:00.806Z,32.65
2022-11-13T00:29:17.936Z,36.17
2022-11-13T00:31:35.945Z,30.27
2022-11-13T00:36:36.180Z,36.03
2022-11-13T00:38:53.146Z,33.47
2022-11-13T00:41:10.208Z,32.05
2022-11-13T00:43:28.074Z,34.03
2022-11-13T00:45:45.125Z,36.58
2022-11-13T00:48:02.354Z,32.75
2022-11-13T00:50:20.386Z,35.35
2022-11-13T00:52:37.461Z,32.17
2022-11-13T00:54:55.375Z,36.15
2022-11-13T00:57:12.411Z,32.10
2022-11-13T00:59:30.592Z,32.83
2022-11-13T01:01:47.952Z,30.38
2022-11-13T01:04:04.903Z,32.60
2022-11-13T01:06:21.842Z,33.13
2022-11-13T01:08:39.809Z,32.72
2022-11-13T01:10:57.119Z,31.23
2022-11-13T01:13:14.160Z,31.70
2022-11-13T01:15:31.437Z,37.90
2022-11-13T01:17:48.848Z,32.95
2022-11-13T01:20:06.223Z,33.95
2022-11-13T01:22:23.493Z,33.22
2022-11-13T01:24:40.543Z,34.58
2022-11-13T01:26:58.516Z,34.53
2022-11-13T01:29:15.818Z,34.40
2022-11-13T01:31:33.870Z,33.65
2022-11-13T01:33:50.981Z,36.35
2022-11-13T01:36:08.209Z,35.35
2022-11-13T01:38:25.690Z,37.65
2022-11-13T01:40:43.244Z,33.72
2022-11-13T01:43:00.181Z,34.05
2022-11-13T01:45:17.194Z,33.70
2022-11-13T01:47:34.054Z,34.83
2022-11-13T01:49:51.237Z,36.58
2022-11-13T01:52:09.535Z,33.28
2022-11-13T01:54:27.615Z,35.90
2022-11-13T01:56:45.625Z,37.33
2022-11-13T01:59:02.972Z,35.50
2022-11-13T02:01:21.944Z,39.25
2022-11-13T02:03:38.880Z,36.13
2022-11-13T02:05:55.830Z,38.95
2022-11-13T02:08:13.186Z,33.70
2022-11-13T02:10:30.198Z,33.60
2022-11-13T02:12:47.436Z,36.72
2022-11-13T02:15:04.494Z,39.30
2022-11-13T02:17:21.567Z,37.33
2022-11-13T02:19:38.627Z,35.40
2022-11-13T02:21:55.731Z,35.72
2022-11-13T02:24:14.040Z,36.83
2022-11-13T02:26:31.098Z,34.97
2022-11-13T02:28:49.351Z,41.00
2022-11-13T02:31:06.240Z,30.33
2022-11-13T02:33:24.326Z,35.70
2022-11-13T02:35:41.337Z,34.95
2022-11-13T02:37:58.280Z,32.38
2022-11-13T02:40:15.680Z,33.70
2022-11-13T02:42:32.782Z,37.70
2022-11-13T02:44:49.907Z,33.40
2022-11-13T02:47:06.842Z,35.33
2022-11-13T02:49:24.171Z,38.08
2022-11-13T02:51:41.326Z,34.95
2022-11-13T02:54:02.757Z,36.92
2022-11-13T02:56:19.635Z,34.65
2022-11-13T02:58:36.940Z,35.53
2022-11-13T03:00:54.179Z,37.22
2022-11-13T03:03:11.375Z,35.70
2022-11-13T03:05:28.687Z,34.03
2022-11-13T03:07:45.797Z,37.80
2022-11-13T03:10:02.832Z,36.83
2022-11-13T03:12:20.781Z,36.70
2022-11-13T03:14:38.162Z,32.40
2022-11-13T03:16:56.388Z,36.08
2022-11-13T03:19:14.809Z,33.83
2022-11-13T03:21:32.110Z,35.72
2022-11-13T03:23:49.068Z,34.22
2022-11-13T03:26:06.128Z,33.30
2022-11-13T03:28:23.162Z,37.03
2022-11-13T03:30:40.490Z,36.40
2022-11-13T03:32:57.868Z,34.95
2022-11-13T03:35:14.906Z,34.55
2022-11-13T03:37:31.885Z,33.35
2022-11-13T03:39:49.129Z,29.98
2022-11-13T03:42:07.573Z,32.00
2022-11-13T03:44:25.039Z,29.70
2022-11-13T03:46:43.547Z,29.25
2022-11-13T03:49:00.800Z,31.30
2022-11-13T03:51:19.061Z,31.27
2022-11-13T03:53:36.118Z,30.98
2022-11-13T03:55:53.258Z,29.80
2022-11-13T03:58:10.285Z,28.80
2022-11-13T04:00:27.542Z,28.17
2022-11-13T04:02:44.525Z,26.50
2022-11-13T04:05:02.499Z,25.75
2022-11-13T04:07:22.013Z,27.10
2022-11-13T04:09:39.239Z,30.75
2022-11-13T04:11:56.284Z,28.65
2022-11-13T04:14:14.321Z,28.60
2022-11-13T04:16:31.289Z,29.48
2022-11-13T04:18:48.261Z,29.75
2022-11-13T04:21:06.315Z,30.98
2022-11-13T04:23:23.574Z,29.45
2022-11-13T04:25:40.798Z,28.05
2022-11-13T04:27:57.833Z,26.85
2022-11-13T04:30:14.791Z,27.08
2022-11-13T04:32:31.803Z,29.55
2022-11-13T04:34:49.991Z,27.52
2022-11-13T04:37:08.182Z,30.15
2022-11-13T04:39:25.372Z,30.38
2022-11-13T04:41:42.448Z,30.92
2022-11-13T04:43:59.991Z,28.70
2022-11-13T04:46:17.252Z,30.27
2022-11-13T04:48:34.462Z,28.38
2022-11-13T04:50:52.740Z,30.67
2022-11-13T04:53:10.733Z,30.77
2022-11-13T04:55:28.062Z,30.48
2022-11-13T04:57:45.019Z,32.70
2022-11-13T05:00:02.296Z,30.10
2022-11-13T05:02:20.269Z,29.52
2022-11-13T05:04:37.332Z,27.70
2022-11-13T05:06:54.507Z,27.25
2022-11-13T05:09:12.599Z,25.40
2022-11-13T05:11:29.574Z,28.30
2022-11-13T05:13:46.804Z,28.83
2022-11-13T05:16:05.161Z,26.95
2022-11-13T05:18:22.441Z,27.20
2022-11-13T05:20:39.765Z,28.05
2022-11-13T05:22:57.548Z,28.95
2022-11-13T05:25:14.566Z,28.20
2022-11-13T05:27:33.765Z,27.58
2022-11-13T05:29:51.003Z,29.10
2022-11-13T05:32:07.940Z,26.75
2022-11-13T05:34:26.201Z,26.65
2022-11-13T05:36:43.447Z,27.30
2022-11-13T05:39:00.449Z,26.65
2022-11-13T05:41:17.719Z,28.52
2022-11-13T05:43:34.939Z,28.48
2022-11-13T05:45:52.001Z,27.60
2022-11-13T05:48:09.027Z,29.85
2022-11-13T05:50:26.372Z,27.55
2022-11-13T05:52:44.358Z,31.70
2022-11-13T05:55:01.397Z,28.77
2022-11-13T05:57:18.442Z,27.08
2022-11-13T05:59:35.500Z,30.10
2022-11-13T06:01:52.655Z,32.63
2022-11-13T06:04:09.679Z,31.25
2022-11-13T06:06:27.013Z,29.55
2022-11-13T06:08:44.269Z,29.05
2022-11-13T06:11:01.178Z,30.90
2022-11-13T06:13:19.059Z,30.10
2022-11-13T06:15:36.145Z,30.73
2022-11-13T06:17:54.117Z,30.45
2022-11-13T06:20:11.091Z,30.30
2022-11-13T06:22:28.322Z,28.23
2022-11-13T06:24:45.559Z,28.10
2022-11-13T06:27:03.479Z,32.38
2022-11-13T06:29:20.682Z,26.52
2022-11-13T06:31:37.685Z,29.48
2022-11-13T06:33:54.987Z,26.67
2022-11-13T06:36:12.951Z,30.05
2022-11-13T06:38:30.473Z,25.10
2022-11-13T06:40:47.953Z,28.08
2022-11-13T06:43:04.984Z,25.45
2022-11-13T06:45:22.287Z,24.15
2022-11-13T06:47:40.500Z,25.73
2022-11-13T06:49:57.549Z,22.58
2022-11-13T06:52:14.556Z,30.35
2022-11-13T06:54:31.626Z,24.92
2022-11-13T06:56:48.572Z,26.20
2022-11-13T06:59:08.425Z,21.77
2022-11-13T07:01:25.761Z,21.90
2022-11-13T07:03:42.851Z,21.30
2022-11-13T07:06:00.102Z,20.20
2022-11-13T07:08:17.369Z,18.33
2022-11-13T07:10:34.690Z,19.88
2022-11-13T07:12:54.838Z,17.35
2022-11-13T07:15:13.038Z,17.55
2022-11-13T07:17:31.021Z,25.73
2022-11-13T07:19:48.354Z,25.75
2022-11-13T07:22:05.385Z,20.85
2022-11-13T07:24:22.362Z,28.58
2022-11-13T07:26:39.340Z,28.10
2022-11-13T07:28:56.377Z,26.42
2022-11-13T07:31:14.336Z,38.40
2022-11-13T07:33:31.352Z,33.85
2022-11-13T07:35:48.647Z,29.17
2022-11-13T07:38:05.553Z,30.50
2022-11-13T07:40:22.538Z,30.27
2022-11-13T07:42:39.512Z,40.75
2022-11-13T07:44:56.855Z,67.57
2022-11-13T07:47:14.130Z,33.53
2022-11-13T07:49:31.144Z,29.27
2022-11-13T07:51:48.441Z,30.65
2022-11-13T07:54:05.540Z,23.60
2022-11-13T07:56:23.529Z,27.25
2022-11-13T07:58:41.560Z,42.30
2022-11-13T08:00:59.564Z,25.38
2022-11-13T08:03:16.536Z,29.58
2022-11-13T08:05:33.452Z,20.42
2022-11-13T08:07:51.503Z,22.10
2022-11-13T08:10:08.562Z,19.60
2022-11-13T08:12:25.458Z,20.65
2022-11-13T08:14:42.485Z,20.33
2022-11-13T08:16:59.553Z,18.23
2022-11-13T08:19:16.910Z,25.13
2022-11-13T08:21:33.984Z,20.05
2022-11-13T08:23:52.702Z,22.67
2022-11-13T08:26:09.749Z,19.90
2022-11-13T08:28:27.340Z,18.58
2022-11-13T08:30:44.438Z,29.20
2022-11-13T08:33:01.462Z,20.23
2022-11-13T08:35:20.310Z,38.15
2022-11-13T08:37:38.987Z,22.40
2022-11-13T08:39:56.035Z,24.65
2022-11-13T08:42:13.029Z,20.30
2022-11-13T08:44:30.254Z,17.67
2022-11-13T08:46:47.228Z,17.30
2022-11-13T08:49:04.476Z,17.70
2022-11-13T08:51:21.736Z,16.73
2022-11-13T08:53:38.788Z,22.67
2022-11-13T08:55:56.026Z,18.75
2022-11-13T08:58:13.338Z,16.92
2022-11-13T09:00:30.375Z,21.27
2022-11-13T09:02:47.888Z,17.75
2022-11-13T09:05:04.899Z,17.15
2022-11-13T09:07:27.199Z,20.30
2022-11-13T09:09:44.606Z,15.85
2022-11-13T09:12:01.526Z,22.73
2022-11-13T09:14:18.661Z,24.95
2022-11-13T09:16:36.196Z,14.60
2022-11-13T09:18:53.141Z,14.95
2022-11-13T09:21:10.067Z,14.15
2022-11-13T09:23:27.035Z,15.70
2022-11-13T09:25:44.036Z,15.25
2022-11-13T09:28:01.106Z,13.23
2022-11-13T09:30:18.082Z,19.27
2022-11-13T09:32:36.349Z,13.68
2022-11-13T09:34:53.323Z,13.00
2022-11-13T09:37:10.619Z,13.02
2022-11-13T09:39:27.849Z,12.52
2022-11-13T09:41:45.117Z,12.02
2022-11-13T09:44:02.130Z,12.05
2022-11-13T09:46:19.160Z,14.23
2022-11-13T09:48:37.840Z,13.55
2022-11-13T09:50:55.937Z,13.05
2022-11-13T09:53:13.097Z,24.83
2022-11-13T09:55:30.150Z,13.13
2022-11-13T09:57:47.359Z,12.18
2022-11-13T10:00:04.596Z,11.23
2022-11-13T10:02:21.631Z,12.82
2022-11-13T10:04:38.648Z,11.02
2022-11-13T10:06:55.915Z,11.52
2022-11-13T10:09:12.951Z,12.45
2022-11-13T10:11:30.255Z,10.38
2022-11-13T10:13:47.196Z,10.55
2022-11-13T10:16:04.426Z,10.32
2022-11-13T10:18:21.658Z,8.90
2022-11-13T10:20:38.594Z,10.13
2022-11-13T10:22:55.979Z,9.27
2022-11-13T10:25:14.267Z,9.25
2022-11-13T10:27:31.723Z,9.77
2022-11-13T10:29:49.282Z,10.05
2022-11-13T10:32:06.319Z,8.55
2022-11-13T10:34:23.610Z,7.70
2022-11-13T10:36:40.819Z,7.90
2022-11-13T10:38:59.084Z,8.13
2022-11-13T10:41:16.268Z,7.70
2022-11-13T10:43:33.568Z,9.85
2022-11-13T10:45:50.587Z,9.68
2022-11-13T10:48:07.624Z,7.65
2022-11-13T10:50:24.557Z,7.57
2022-11-13T10:52:41.600Z,7.65
2022-11-13T10:54:58.610Z,6.90
2022-11-13T10:57:16.567Z,7.68
2022-11-13T10:59:33.562Z,7.88
2022-11-13T11:01:50.515Z,6.57
2022-11-13T11:04:07.570Z,9.52
2022-11-13T11:06:41.973Z,12.35
2022-11-13T11:09:03.697Z,9.50
2022-11-13T11:11:20.742Z,8.20
2022-11-13T11:13:37.664Z,10.88
2022-11-13T11:15:54.682Z,10.70
2022-11-13T11:18:11.610Z,7.07
2022-11-13T11:20:29.592Z,7.00
2022-11-13T11:22:46.863Z,6.88
2022-11-13T11:25:03.860Z,19.25
2022-11-13T11:27:20.818Z,6.32
2022-11-13T11:29:37.807Z,8.55
2022-11-13T11:31:55.768Z,6.40
2022-11-13T11:34:14.024Z,6.07
2022-11-13T11:36:31.001Z,6.65
2022-11-13T11:38:48.034Z,5.30
2022-11-13T11:41:04.966Z,6.47
2022-11-13T11:43:22.147Z,5.68
2022-11-13T11:45:40.540Z,6.45
2022-11-13T11:47:57.594Z,15.65
2022-11-13T11:50:14.695Z,12.05
2022-11-13T11:52:31.773Z,10.18
2022-11-13T11:54:48.735Z,7.28
2022-11-13T11:57:05.993Z,6.45
2022-11-13T11:59:22.920Z,6.43
2022-11-13T12:01:39.886Z,6.72
2022-11-13T12:03:56.724Z,8.45
2022-11-13T12:06:13.790Z,4.78
2022-11-13T12:08:31.036Z,6.65
2022-11-13T12:10:48.646Z,6.47
2022-11-13T12:13:06.066Z,6.03
2022-11-13T12:15:23.271Z,5.88
2022-11-13T12:17:40.280Z,5.47
2022-11-13T12:19:58.575Z,5.05
2022-11-13T12:22:15.562Z,5.63
2022-11-13T12:24:32.844Z,5.82
2022-11-13T12:26:49.825Z,6.53
2022-11-13T12:29:07.823Z,5.13
2022-11-13T12:31:25.100Z,5.53
2022-11-13T12:33:43.345Z,6.88
2022-11-13T12:36:01.784Z,5.00
2022-11-13T12:38:18.810Z,5.15
2022-11-13T12:40:38.695Z,5.82
2022-11-13T12:45:16.902Z,8.77
2022-11-13T12:47:36.415Z,5.63
2022-11-13T12:49:53.660Z,5.75
2022-11-13T12:52:10.641Z,4.15
2022-11-13T12:54:27.921Z,5.57
2022-11-13T12:56:44.863Z,5.28
2022-11-13T12:59:29.254Z,4.88
2022-11-13T13:01:39.934Z,5.40
2022-11-13T13:03:56.999Z,5.78
2022-11-13T13:06:14.738Z,10.05
2022-11-13T13:08:32.214Z,4.80
2022-11-13T13:10:50.403Z,4.78
2022-11-13T13:13:08.658Z,6.90
2022-11-13T13:15:25.676Z,4.90
2022-11-13T13:17:42.644Z,5.75
2022-11-13T13:19:59.624Z,6.13
2022-11-13T13:22:16.645Z,5.15
2022-11-13T13:24:33.509Z,7.50
2022-11-13T13:26:50.436Z,5.68
2022-11-13T13:29:07.430Z,6.32
2022-11-13T13:31:24.718Z,6.07
2022-11-13T13:33:41.753Z,5.60
2022-11-13T13:35:59.138Z,5.38
2022-11-13T13:38:16.341Z,5.47
2022-11-13T13:40:34.360Z,6.43
2022-11-13T13:42:51.608Z,5.30
2022-11-13T13:45:08.834Z,6.70
2022-11-13T13:47:25.867Z,5.90
2022-11-13T13:49:42.754Z,6.18
2022-11-13T13:52:01.251Z,6.57
2022-11-13T13:54:18.277Z,4.85
2022-11-13T13:56:35.481Z,5.85
2022-11-13T13:58:52.464Z,5.65
2022-11-13T14:01:18.981Z,6.97
2022-11-13T14:03:37.136Z,5.15
2022-11-13T14:05:56.978Z,5.28
2022-11-13T14:08:16.577Z,5.85
2022-11-13T14:10:35.141Z,6.20
2022-11-13T14:12:52.340Z,4.07
2022-11-13T14:15:09.623Z,4.40
2022-11-13T14:17:26.594Z,6.13
2022-11-13T14:19:43.920Z,5.43
2022-11-13T14:22:01.144Z,6.95
2022-11-13T14:24:19.187Z,6.22
2022-11-13T14:26:36.460Z,3.78
2022-11-13T14:28:54.394Z,4.97
2022-11-13T14:31:11.663Z,6.30
2022-11-13T14:33:28.647Z,7.60
2022-11-13T14:35:46.036Z,4.20
2022-11-13T14:38:03.339Z,8.38
2022-11-13T14:40:20.304Z,5.43
2022-11-13T14:42:37.566Z,5.03
2022-11-13T14:44:54.878Z,4.50
2022-11-13T14:47:11.813Z,5.65
2022-11-13T14:49:29.131Z,5.43
2022-11-13T14:51:46.336Z,4.97
2022-11-13T14:54:09.131Z,8.10
2022-11-13T14:56:26.160Z,6.25
2022-11-13T14:58:43.095Z,4.15
2022-11-13T15:01:03.270Z,7.60
2022-11-13T15:03:20.615Z,4.82
2022-11-13T15:05:37.690Z,5.32
2022-11-13T15:07:54.677Z,4.43
2022-11-13T15:10:11.672Z,4.70
2022-11-13T15:12:29.113Z,4.18
2022-11-13T15:14:46.203Z,5.25
2022-11-13T15:17:03.443Z,6.15
2022-11-13T15:19:23.105Z,8.02
2022-11-13T15:21:40.013Z,3.47
2022-11-13T15:23:57.297Z,4.15
2022-11-13T15:26:15.530Z,5.78
2022-11-13T15:28:32.487Z,6.22
2022-11-13T15:30:51.530Z,3.53
2022-11-13T15:33:09.578Z,6.78
2022-11-13T15:35:26.853Z,5.68
2022-11-13T15:37:46.317Z,5.22
2022-11-13T15:40:04.649Z,5.93
2022-11-13T15:42:21.565Z,5.80
2022-11-13T15:44:38.843Z,7.65
2022-11-13T15:46:56.115Z,7.15
2022-11-13T15:49:13.090Z,8.88
2022-11-13T15:51:30.124Z,6.07
2022-11-13T15:53:47.316Z,5.70
2022-11-13T15:56:04.321Z,6.07
2022-11-13T15:58:21.938Z,7.15
2022-11-13T16:00:38.944Z,4.57
2022-11-13T16:02:56.030Z,5.15
2022-11-13T16:05:14.539Z,6.30
2022-11-13T16:07:31.685Z,4.97
2022-11-13T16:09:48.710Z,5.30
2022-11-13T16:12:06.907Z,4.43
2022-11-13T16:14:25.265Z,7.43
2022-11-13T16:16:42.718Z,7.70
2022-11-13T16:19:00.576Z,9.10
2022-11-13T16:21:17.604Z,4.80
2022-11-13T16:23:34.626Z,6.15
2022-11-13T16:25:51.501Z,7.30
2022-11-13T16:28:08.615Z,8.20
2022-11-13T16:30:25.883Z,6.85
2022-11-13T16:32:43.442Z,7.47
2022-11-13T16:35:00.458Z,5.32
2022-11-13T16:37:17.725Z,5.70
2022-11-13T16:39:35.817Z,6.32
2022-11-13T16:41:52.908Z,7.47
2022-11-13T16:44:09.957Z,11.70
2022-11-13T16:46:28.191Z,10.18
2022-11-13T16:48:45.068Z,10.50
2022-11-13T16:51:02.366Z,7.90
2022-11-13T16:53:19.405Z,7.18
2022-11-13T16:55:36.439Z,10.60
2022-11-13T16:57:53.373Z,10.48
2022-11-13T17:00:10.445Z,41.80
2022-11-13T17:02:27.668Z,39.78
2022-11-13T17:04:45.621Z,31.75
2022-11-13T17:07:03.005Z,15.70
2022-11-13T17:09:20.242Z,16.75
2022-11-13T17:11:37.503Z,13.43
2022-11-13T17:13:54.742Z,15.70
2022-11-13T17:16:11.850Z,19.50
2022-11-13T17:18:29.238Z,27.42
2022-11-13T17:20:47.704Z,60.40
2022-11-13T17:23:05.115Z,33.22
2022-11-13T17:25:22.131Z,19.52
2022-11-13T17:27:39.265Z,16.63
2022-11-13T17:29:56.839Z,13.77
2022-11-13T17:32:14.794Z,39.75
2022-11-13T17:34:31.859Z,34.80
2022-11-13T17:36:49.103Z,181.13
2022-11-13T17:39:07.094Z,118.75
2022-11-13T17:41:24.474Z,48.58
2022-11-13T17:43:42.533Z,102.63
2022-11-13T17:45:59.698Z,106.43
2022-11-13T17:48:16.774Z,103.80
2022-11-13T17:50:33.750Z,57.92
2022-11-13T17:52:51.543Z,55.92
2022-11-13T17:55:08.887Z,36.40
2022-11-13T17:57:27.229Z,27.85
2022-11-13T17:59:44.621Z,23.70
2022-11-13T18:02:03.047Z,17.42
2022-11-13T18:04:20.247Z,10.43
2022-11-13T18:06:37.968Z,10.73
2022-11-13T18:08:58.772Z,11.38
2022-11-13T18:11:15.995Z,10.88
2022-11-13T18:13:34.266Z,14.85
2022-11-13T18:15:51.744Z,10.27
2022-11-13T18:18:10.495Z,8.55
2022-11-13T18:20:28.860Z,10.98
2022-11-13T18:22:51.222Z,7.68
2022-11-13T18:25:08.538Z,12.73
2022-11-13T18:27:28.497Z,20.40
2022-11-13T18:29:45.434Z,29.13
2022-11-13T18:32:05.397Z,29.27
2022-11-13T18:34:22.725Z,20.92
2022-11-13T18:36:40.149Z,15.43
2022-11-13T18:38:57.134Z,33.85
2022-11-13T18:41:16.957Z,29.05
2022-11-13T18:43:34.068Z,25.23
2022-11-13T18:45:51.240Z,24.63
2022-11-13T18:48:08.625Z,24.55
2022-11-13T18:50:25.732Z,16.25
2022-11-13T18:52:42.810Z,16.63
2022-11-13T18:54:59.882Z,13.43
2022-11-13T18:57:16.975Z,10.85
2022-11-13T18:59:33.983Z,10.65
2022-11-13T19:01:51.056Z,11.80
2022-11-13T19:04:26.358Z,9.85
2022-11-13T19:06:43.476Z,9.25
2022-11-13T19:09:00.718Z,10.93
2022-11-13T19:11:18.961Z,11.35
2022-11-13T19:13:35.963Z,12.15
2022-11-13T19:15:53.726Z,13.80
2022-11-13T19:18:10.828Z,10.07
2022-11-13T19:20:28.014Z,10.88
2022-11-13T19:22:52.674Z,11.25
2022-11-13T19:25:10.273Z,10.43
2022-11-13T19:27:27.221Z,12.07
2022-11-13T19:29:44.292Z,10.82
2022-11-13T19:32:01.314Z,10.30
2022-11-13T19:34:19.688Z,13.05
2022-11-13T19:36:36.649Z,12.18
2022-11-13T19:38:56.270Z,9.63
2022-11-13T19:41:13.310Z,7.55
2022-11-13T19:43:30.192Z,9.23
2022-11-13T19:45:47.859Z,12.80
2022-11-13T19:48:05.244Z,7.47
2022-11-13T19:50:22.282Z,7.40
2022-11-13T19:52:39.226Z,7.03
2022-11-13T19:54:56.319Z,7.45
2022-11-13T19:57:13.356Z,8.07
2022-11-13T19:59:30.301Z,7.97
2022-11-13T20:01:47.722Z,6.70
2022-11-13T20:04:08.196Z,7.80
2022-11-13T20:06:26.326Z,8.07
2022-11-13T20:08:43.901Z,11.57
2022-11-13T20:11:02.182Z,8.15
2022-11-13T20:13:20.448Z,9.80
2022-11-13T20:15:37.805Z,8.68
2022-11-13T20:17:55.192Z,10.73
2022-11-13T20:20:13.083Z,13.88
2022-11-13T20:22:30.255Z,12.65
2022-11-13T20:24:47.664Z,11.82
2022-11-13T20:27:05.899Z,13.95
2022-11-13T20:29:22.920Z,17.80
2022-11-13T20:31:41.130Z,15.07
2022-11-13T20:33:58.393Z,17.63
2022-11-13T20:36:15.848Z,17.35
2022-11-13T20:38:33.129Z,19.08
2022-11-13T20:40:50.334Z,18.73
2022-11-13T20:43:07.717Z,14.13
2022-11-13T20:45:25.057Z,14.25
2022-11-13T20:47:42.087Z,9.85
2022-11-13T20:49:59.172Z,7.68
2022-11-13T20:52:16.194Z,6.78
2022-11-13T20:54:33.333Z,12.30
2022-11-13T20:56:50.278Z,9.18
2022-11-13T20:59:07.300Z,8.18
2022-11-13T21:01:25.564Z,9.07
2022-11-13T21:03:42.691Z,7.75
2022-11-13T21:05:59.635Z,8.25
2022-11-13T21:08:16.669Z,10.40
2022-11-13T21:10:33.696Z,9.10
2022-11-13T21:12:51.001Z,7.70
2022-11-13T21:15:08.249Z,10.30
2022-11-13T21:17:25.470Z,8.23
2022-11-13T21:19:43.720Z,8.93
2022-11-13T21:22:00.645Z,7.95
2022-11-13T21:24:17.623Z,8.82
2022-11-13T21:26:34.878Z,7.97
2022-11-13T21:28:51.887Z,6.82
2022-11-13T21:31:08.938Z,8.65
2022-11-13T21:33:26.045Z,6.13
2022-11-13T21:35:43.095Z,7.05
2022-11-13T21:37:59.974Z,7.38
2022-11-13T21:40:17.088Z,8.27
2022-11-13T21:42:34.086Z,7.88
2022-11-13T21:44:51.427Z,6.97
2022-11-13T21:47:08.698Z,6.35
2022-11-13T21:49:25.705Z,6.72
2022-11-13T21:51:42.992Z,7.43
2022-11-13T21:54:00.938Z,6.68
2022-11-13T21:56:17.951Z,7.45
2022-11-13T21:58:34.979Z,8.45
2022-11-13T22:00:52.299Z,8.70
2022-11-13T22:03:09.549Z,10.02
2022-11-13T22:05:26.504Z,12.43
2022-11-13T22:07:43.982Z,10.73
2022-11-13T22:10:07.987Z,7.97
2022-11-13T22:12:25.512Z,8.63
2022-11-13T22:14:42.522Z,9.00
2022-11-13T22:16:59.645Z,11.55
2022-11-13T22:19:19.424Z,12.13
2022-11-13T22:21:39.890Z,9.88
2022-11-13T22:23:56.921Z,11.15
2022-11-13T22:26:14.905Z,9.75
2022-11-13T22:28:32.172Z,9.55
2022-11-13T22:30:49.318Z,9.13
2022-11-13T22:33:06.343Z,7.75
2022-11-13T22:35:23.600Z,7.80
2022-11-13T22:37:41.614Z,10.07
2022-11-13T22:39:58.600Z,7.35
2022-11-13T22:42:15.958Z,7.38
2022-11-13T22:44:54.341Z,7.50
2022-11-13T22:47:09.792Z,8.93
2022-11-13T22:49:26.782Z,7.75
2022-11-13T22:51:43.847Z,8.10
2022-11-13T22:54:00.842Z,10.52
2022-11-13T22:56:19.899Z,6.85
2022-11-13T22:58:36.944Z,6.80
2022-11-13T23:00:54.227Z,10.68
2022-11-13T23:03:12.253Z,7.93
2022-11-13T23:05:30.586Z,6.65
2022-11-13T23:07:48.630Z,8.60
2022-11-13T23:10:06.711Z,6.35
2022-11-13T23:12:23.741Z,6.45
2022-11-13T23:14:41.135Z,10.48
2022-11-13T23:16:58.461Z,6.55
2022-11-13T23:19:16.760Z,7.97
2022-11-13T23:21:33.707Z,7.57
2022-11-13T23:23:51.035Z,8.13
2022-11-13T23:26:07.996Z,6.95
2022-11-13T23:28:24.917Z,7.88
2022-11-13T23:30:42.169Z,8.07
2022-11-13T23:32:59.261Z,7.82
2022-11-13T23:35:16.591Z,9.65
2022-11-13T23:37:33.988Z,7.65
2022-11-13T23:39:51.288Z,6.60
2022-11-13T23:42:08.808Z,8.35
2022-11-13T23:44:26.030Z,10.27
2022-11-13T23:46:43.157Z,8.05
2022-11-13T23:49:02.644Z,8.10
2022-11-13T23:51:19.874Z,10.38
2022-11-13T23:53:37.247Z,9.30
2022-11-13T23:55:55.051Z,10.45
2022-11-13T23:58:12.413Z,9.45
